Tiempo atmosférico en la estación meteorológica de A Coruña, A Coruña (58 m.)



Fecha
DESCASC
Temp. máxima en grados centígrados (hora)
DESCASC
Temp. mínima en grados centígrados (hora)
DESCASC
Temp. media en grados centígrados
DESCASC
Racha de viento máxima en m/sg (hora)
DESCASC
Velocidad máxima media en intervalos de 10 minutos(hora)
DESCASC
Precipitaciones diarias en mm
DESCASC
Precipitaciones de 00:00 a 06:00 en mm
DESCASC
Precipitaciones de 06:00 a 12:00 en mm
DESCASC
Precipitaciones de 12:00 a 18:00 en mm
DESCASC
Precipitaciones de 18:00 a 24:00 en mm
DESCASC
15-08-2019 21.9 (14:30) 16.9 (07:30) 19.4 7.5 (14:20) 5 (14:20) 0 0 0 0 0
14-08-2019 22.7 (15:10) 16.7 (00:00) 19.7 8.61 (17:00) 5.56 (16:40) 0.4 0 0.2 0 0.2
13-08-2019 21.1 (14:40) 13.8 (00:00) 17.5 7.22 (15:50) 5 (14:20) 0 0 0 0 0
12-08-2019 20.9 (13:40) 15.5 (00:00) 18.2 7.22 (21:20) 5 (21:10) 0.4 0 0.4 0 0
11-08-2019 21.4 (15:50) 16.6 (00:00) 19 10 (16:40) 6.67 (17:10) 1.4 0 0 1.2 0.2
10-08-2019 22.8 (14:40) 17.6 (00:00) 20.2 11.11 (16:40) 7.78 (16:20) 0 0 0 0 0
09-08-2019 24.6 (13:00) 19.2 (00:00) 21.9 19.44 (12:20) 10.83 (12:20) 0 0 0 0 0
08-08-2019 26.6 (14:20) 20.7 (00:00) 23.7 17.22 (15:50) 9.17 (15:50) 5.2 0 0 1.6 3.6
07-08-2019 24.4 (15:20) 18.6 (00:00) 21.5 13.61 (16:40) 6.39 (23:59) 1.8 0 0.4 1.2 0.2
06-08-2019 23 (14:50) 19.2 (00:00) 21.1 9.44 (16:20) 5.83 (15:40) 0 0 0 0 0
05-08-2019 25.3 (14:20) 16.7 (00:00) 21 9.17 (16:50) 6.11 (17:00) 0 0 0 0 0
04-08-2019 23.2 (16:50) 18.5 (00:00) 20.9 7.22 (15:20) 4.44 (15:00) 0 0 0 0 0
03-08-2019 22.8 (13:10) 18.5 (00:00) 20.6 8.33 (15:30) 5.56 (13:50) 0 0 0 0 0
02-08-2019 23.7 (16:50) 16.2 (00:00) 20 7.78 (20:40) 5 (20:30) 0 0 0 0 0
01-08-2019 21.1 (13:30) 17.3 (00:00) 19.2 12.22 (15:30) 8.61 (15:40) 0 0 0 0 0
31-07-2019 21.6 (15:00) 14 (00:00) 17.8 11.67 (18:50) 8.06 (17:30) 0 0 0 0 0
30-07-2019 21.4 (13:00) 16.4 (00:00) 18.9 8.61 (05:30) 5.28 (12:40) 0 0 0 0 0
29-07-2019 22.2 (13:50) 17 (00:00) 19.6 15.56 (13:20) 9.17 (16:50) 1.4 0 0 0 1.4
28-07-2019 22.9 (17:20) 14.1 (00:00) 18.5 8.33 (23:59) 4.72 (17:50) 0 0 0 0 0
27-07-2019 20.4 (16:20) 14.4 (00:00) 17.4 9.17 (15:30) 6.39 (15:30) 8.8 1.8 7 0 0
26-07-2019 23 (16:20) 17.6 (00:00) 20.3 9.44 (17:40) 6.39 (17:10) 0 0 0 0 0
25-07-2019 23.4 (16:10) 18.9 (00:00) 21.1 11.11 (08:50) 6.67 (16:20) 0 0 0 0 0
24-07-2019 25.1 (15:30) 17.3 (00:00) 21.2 8.33 (21:40) 4.44 (21:40) 0 0 0 0 0
23-07-2019 23.8 (14:10) 17.7 (00:00) 20.8 11.39 (16:00) 7.5 (16:00) 0 0 0 0 0
22-07-2019 24.9 (13:00) 17.3 (00:00) 21.1 8.61 (16:50) 5.28 (17:00) 0 0 0 0 0
21-07-2019 22.3 (15:20) 16.5 (00:00) 19.4 12.5 (17:00) 8.33 (18:20) 0 0 0 0 0
20-07-2019 23.4 (14:00) 17.2 (00:00) 20.3 6.94 (09:30) 4.72 (11:20) 0 0 0 0 0
19-07-2019 22.5 (17:30) 16.9 (00:00) 19.7 7.78 (17:10) 5.28 (17:20) 0 0 0 0 0

Gráficas

Temp. máximas Temp. mínimas Temp. medias Precipitaciones Rachas de viento máximas Velocidades máximas media en intervalos de 10 minutos

Datos horarios

Fecha y hora oficial Temperatura (ºC) Velocidad del viento (km/h) Dirección del viento Racha (km/h) Dirección de racha Precipitación (mm) Presión (hPa) Tendencia (hPa) Humedad (%)
2019-08-17 23:00:00 22.3 20 Sudoeste 36 Sudoeste 0 1005.6 0.2 74
2019-08-17 22:00:00 22.8 9 Sudoeste 37 Sudoeste 0 1005.1 -0.8 73
2019-08-17 21:00:00 23.6 19 Sudoeste 46 Sudoeste 0 1005 -1.1 70
2019-08-17 20:00:00 24.3 22 Sudoeste 48 Sudoeste 0 1005.4 -0.9 69
2019-08-17 19:00:00 24.9 19 Sudoeste 43 Sudoeste 0 1005.9 -0.6 69
2019-08-17 18:00:00 25 19 Sudoeste 48 Sudoeste 0 1006.1 -0.9 70
2019-08-17 17:00:00 25.6 26 Sudoeste 43 Sudoeste 0 1006.3 -1.1 67
2019-08-17 16:00:00 25.4 16 Sur 33 Sur 0 1006.5 -1.2 69
2019-08-17 15:00:00 24.3 12 Sur 31 Sur 0 1007 -0.7 73
2019-08-17 14:00:00 24.3 14 Sur 33 Sudoeste 0 1007.4 -0.7 73
2019-08-17 13:00:00 24.1 10 Sur 28 Sur 0 1007.7 -0.5 73
2019-08-17 12:00:00 23.3 15 Sur 24 Sur 0 1007.7 -0.3 75
2019-08-17 11:00:00 22.3 12 Sur 22 Sur 0 1008.1 0.1 78
2019-08-17 10:00:00 21 10 Sur 21 Sur 0 1008.2 0.3 85
2019-08-17 09:00:00 21 12 Sur 22 Sur 0 1008 -0.2 83
2019-08-17 08:00:00 21.2 8 Sur 17 Sur 0 1008 -0.4 80
2019-08-17 07:00:00 21.2 7 Sur 18 Sur 0 1007.9 -1 79
2019-08-17 06:00:00 21.2 9 Sur 23 Sur 0 1008.2 -1.6 78
2019-08-17 05:00:00 21 11 Sur 26 Sur 0 1008.4 -1.7 78
2019-08-17 04:00:00 21 7 Sur 17 Sudeste 0 1008.9 -1.2 77
2019-08-17 03:00:00 20.6 8 Sur 18 Sur 0 1009.8 -0.6 78
2019-08-17 02:00:00 20.6 9 Sur 19 Sur 0 1010.1 -0.6 77
2019-08-17 01:00:00 20.7 8 Sur 24 Sur 0 1010.1 -0.3 76
2019-08-17 00:00:00 21 12 Sur 26 Sudoeste 0 1010.4 0.5 76
2019-08-16 23:00:00 21.4 13 Sudoeste 26 Sudoeste 0 1010.7 0.9 76
2019-08-16 22:00:00 21.5 15 Sudoeste 26 Oeste 0 1010.4 0.3 76
2019-08-16 21:00:00 22 10 Oeste 35 Oeste 0 1009.9 -0.6 76
2019-08-16 20:00:00 22.5 19 Oeste 36 Oeste 0 1009.8 -1 73
2019-08-16 19:00:00 22.9 23 Oeste 46 Oeste 0 1010.1 -1 70
2019-08-16 18:00:00 24.3 28 Oeste 45 Oeste 0 1010.5 -1 64
2019-08-16 17:00:00 24 19 Oeste 34 Oeste 0 1010.8 -0.9 68
2019-08-16 16:00:00 24 22 Oeste 37 Oeste 0 1011.1 -0.8 66
2019-08-16 15:00:00 23.5 25 Oeste 37 Oeste 0 1011.5 -0.5 66
2019-08-16 14:00:00 23.1 19 Oeste 28 Noroeste 0 1011.7 -0.3 62
2019-08-16 13:00:00 23.4 18 Oeste 27 Oeste 0 1011.9 -0.2 63
2019-08-16 12:00:00 20.8 13 Oeste 21 Oeste 0 1012 -0.2 72
2019-08-16 11:00:00 20.1 7 Oeste 18 Noroeste 0 1012 -0.2 74
2019-08-16 10:00:00 18.7 4 Sudeste 10 Sur 0 1012.1 -0.1 80
2019-08-16 09:00:00 16.7 6 Sur 13 Sur 0 1012.2 -0.2 85
2019-08-16 08:00:00 16.6 3 Sudeste 10 Sudoeste 0 1012.2 -0.3 87
2019-08-16 07:00:00 16.9 8 Sudoeste 14 Sudoeste 0 1012.2 -0.3 89
2019-08-16 06:00:00 16.4 6 Oeste 12 Sudoeste 0 1012.4 -0.7 91
2019-08-16 05:00:00 16.3 0 Calma 7 Sudoeste 0 1012.5 -1 87
2019-08-16 04:00:00 17 5 Sudoeste 13 Oeste 0 1012.5 -1.1 86
2019-08-16 03:00:00 17.3 6 Sudoeste 14 Sudoeste 0 1013.1 -0.6 87
2019-08-16 02:00:00 17.5 7 Sur 12 Sur 0 1013.5 -0.8 86
2019-08-16 01:00:00 17.7 6 Sur 10 Sudoeste 0 1013.6 -0.5 82
2019-08-16 00:00:00 18.1 3 Sudoeste 8 Sudoeste 0 1013.7 -0.6 81
2019-08-15 23:00:00 18.4 6 Oeste 13 Noroeste 0 1014.3 -0.1 81
2019-08-15 22:00:00 18.7 9 Oeste 16 Noroeste 0 1014.1 -0.2 81
2019-08-15 21:00:00 19.2 8 Norte 21 Norte 0 1014.3 -0.3 78
2019-08-15 20:00:00 19.5 12 Noroeste 25 Noroeste 0 1014.4 -0.6 75
2019-08-15 19:00:00 20 11 Noroeste 24 Noroeste 0 1014.3 -1.3 70
2019-08-15 18:00:00 20.6 12 Noroeste 26 Noroeste 0 1014.6 -1.2 66
2019-08-15 17:00:00 20.9 12 Noroeste 24 Norte 0 1015 -1 65
2019-08-15 16:00:00 20.8 12 Norte 24 Norte 0 1015.6 -0.4 66
2019-08-15 15:00:00 21.9 18 Norte 27 Norte 0 1015.8 -0.3 63
2019-08-15 14:00:00 21.7 16 Norte 26 Norte 0 1016 0.1 68
2019-08-15 13:00:00 21.1 10 Norte 19 Norte 0 1016 0.2 69
2019-08-15 12:00:00 20.7 9 Norte 14 Norte 0 1016.1 0.4 66
2019-08-15 11:00:00 20.8 5 Nordeste 10 Nordeste 0 1015.9 0.5 66
2019-08-15 10:00:00 19.7 3 Este 7 Nordeste 0 1015.8 0.5 74
2019-08-15 09:00:00 17.3 3 Este 8 Sudeste 0 1015.7 0.2 84
2019-08-15 08:00:00 16.9 4 Sudeste 9 Sudeste 0 1015.4 -0.1 88
2019-08-15 07:00:00 17 5 Sudeste 7 Sudeste 0 1015.3 -0.3 88
2019-08-15 06:00:00 17.1 2 Sudeste 3 Sudeste 0 1015.5 -0.4 86
2019-08-15 05:00:00 17.1 0 Calma 5 Noroeste 0 1015.5 -0.5 82
2019-08-15 04:00:00 17.6 2 Noroeste 9 Noroeste 0 1015.6 -0.3 79
2019-08-15 03:00:00 18 5 Noroeste 9 Noroeste 0 1015.9 0.1 78
2019-08-15 02:00:00 18.1 4 Noroeste 10 Noroeste 0 1016 0.4 80
2019-08-15 01:00:00 18.2 6 Oeste 11 Oeste 0 1015.9 0.9 84
2019-08-15 00:00:00 18.2 5 Noroeste 16 Noroeste 0 1015.8 0.9 84
2019-08-14 23:00:00 18.3 9 Noroeste 18 Noroeste 0 1015.6 1.1 87
2019-08-14 22:00:00 18.3 6 Noroeste 13 Noroeste 0 1015 0.6 94
2019-08-14 21:00:00 18.5 9 Noroeste 22 Noroeste 0.2 1014.9 0.5 97
2019-08-14 20:00:00 19.7 13 Oeste 24 Oeste 0 1014.5 0 95
2019-08-14 19:00:00 20.2 12 Oeste 27 Oeste 0 1014.4 0 94
2019-08-14 18:00:00 21.1 16 Oeste 28 Oeste 0 1014.4 -0.1 87
2019-08-14 17:00:00 21.2 19 Oeste 31 Oeste 0 1014.5 -0.1 89
2019-08-14 16:00:00 22.1 14 Oeste 26 Oeste 0 1014.4 0 82
2019-08-14 15:00:00 22.6 12 Oeste 24 Oeste 0 1014.5 0.4 79
2019-08-14 14:00:00 21.7 12 Oeste 19 Oeste 0 1014.6 0.6 83
2019-08-14 13:00:00 20.8 11 Sudoeste 21 Sudoeste 0 1014.4 0.6 84
2019-08-14 12:00:00 19.6 5 Sur 24 Sudoeste 0.2 1014.1 0.9 88
2019-08-14 11:00:00 19.3 7 Sudoeste 22 Oeste 0 1014 0.9 87
2019-08-14 10:00:00 19.4 4 Oeste 11 Sudoeste 0 1013.8 0.9 82
2019-08-14 09:00:00 18.6 8 Sur 12 Sur 0 1013.2 0.2 73
2019-08-14 08:00:00 17.8 4 Sudeste 16 Sur 0 1013.1 -0.4 72
2019-08-14 07:00:00 17.3 9 Sur 15 Sudeste 0 1012.9 -0.8 72
2019-08-14 06:00:00 16.9 6 Sudeste 13 Sur 0 1013 -1 69
2019-08-14 05:00:00 16.8 3 Norte 14 Sur 0 1013.5 -0.8 74
2019-08-14 04:00:00 17 7 Sur 12 Sur 0 1013.7 -0.4 74
2019-08-14 03:00:00 17.1 8 Sur 12 Sur 0 1014 -0.7 80
2019-08-14 02:00:00 17.2 3 Sudeste 9 Sur 0 1014.3 -0.9 79
2019-08-14 01:00:00 17.5 4 Sudeste 8 Sudeste 0 1014.1 -0.8 78
2019-08-14 00:00:00 17.4 4 Noroeste 5 Noroeste 0 1014.7 -0.2 78
2019-08-13 23:00:00 17.6 5 Oeste 9 Noroeste 0 1015.2 0.4 77
2019-08-13 22:00:00 18 5 Noroeste 13 Noroeste 0 1014.9 0 75
2019-08-13 21:00:00 18.6 6 Noroeste 15 Oeste 0 1014.9 0 73
2019-08-13 20:00:00 19.1 9 Noroeste 18 Noroeste 0 1014.8 -0.4 71
2019-08-13 19:00:00 19.4 14 Norte 23 Noroeste 0 1014.9 -0.5 70
2019-08-13 18:00:00 20.2 13 Norte 24 Norte 0 1014.9 -0.7 68
2019-08-13 17:00:00 20.7 13 Norte 25 Norte 0 1015.2 -0.7 65
2019-08-13 16:00:00 20.5 14 Norte 26 Norte 0 1015.4 -0.7 65
2019-08-13 15:00:00 20.5 15 Norte 24 Norte 0 1015.6 -0.7 63
2019-08-13 14:00:00 20.2 14 Norte 26 Norte 0 1015.9 -0.6 64
2019-08-13 13:00:00 19.9 12 Noroeste 19 Noroeste 0 1016.1 -0.2 67
2019-08-13 12:00:00 19.5 7 Nordeste 15 Norte 0 1016.3 0 67
2019-08-13 11:00:00 18.8 5 Este 10 Este 0 1016.5 0.5 66
2019-08-13 10:00:00 17.3 5 Este 10 Este 0 1016.3 0.5 71
2019-08-13 09:00:00 14.6 4 Sudeste 7 Sudeste 0 1016.3 0.5 81
2019-08-13 08:00:00 13.9 3 Sudeste 9 Sur 0 1016 0.3 84
2019-08-13 07:00:00 13.9 5 Sudeste 9 Sudeste 0 1015.8 -0.4 85
2019-08-13 06:00:00 14.2 3 Sudeste 8 Sur 0 1015.8 -1.2 85
2019-08-13 05:00:00 14.6 4 Sudeste 8 Sudeste 0 1015.7 -1.6 84
2019-08-13 04:00:00 15.1 5 Nordeste 8 Este 0 1016.2 -1.6 83
2019-08-13 03:00:00 15.5 3 Nordeste 14 Este 0 1017 -1.1 80
2019-08-13 02:00:00 16 7 Este 13 Nordeste 0 1017.3 -0.6 77
2019-08-13 01:00:00 16.4 6 Nordeste 16 Nordeste 0 1017.8 0.1 75
2019-08-13 00:00:00 16.8 8 Nordeste 18 Nordeste 0 1018.1 0.6 71
2019-08-12 23:00:00 17.2 11 Nordeste 24 Nordeste 0 1017.9 1.1 67
2019-08-12 22:00:00 17.7 13 Nordeste 26 Norte 0 1017.7 0.9 67
2019-08-12 21:00:00 18 16 Norte 24 Norte 0 1017.5 0.8 67
2019-08-12 20:00:00 18.4 18 Norte 23 Norte 0 1016.8 0 65
2019-08-12 19:00:00 18.9 16 Norte 23 Norte 0 1016.8 -0.6 67
2019-08-12 18:00:00 19.6 13 Norte 21 Norte 0 1016.7 -1 63
2019-08-12 17:00:00 19.5 14 Norte 23 Norte 0 1016.8 -1.1 63
2019-08-12 16:00:00 19.6 13 Norte 18 Noroeste 0 1017.4 -0.5 63
2019-08-12 15:00:00 19.5 8 Norte 18 Norte 0 1017.7 0 64
2019-08-12 14:00:00 20.3 10 Noroeste 17 Norte 0 1017.9 0.5 62
2019-08-12 13:00:00 20.5 10 Nordeste 15 Nordeste 0 1017.9 0.9 60
2019-08-12 12:00:00 19.9 8 Nordeste 13 Norte 0 1017.7 1.1 63
2019-08-12 11:00:00 18.9 6 Norte 10 Norte 0 1017.4 1.3 70
2019-08-12 10:00:00 16.6 3 Sudeste 15 Este 0 1017 1.2 85
2019-08-12 09:00:00 16.2 4 Sudoeste 9 Sur 0 1016.6 1.2 82
2019-08-12 08:00:00 15.6 8 Sur 11 Sur 0 1016.1 0.7 86
2019-08-12 07:00:00 15.8 6 Nordeste 23 Noroeste 0.4 1015.8 0.2 87
2019-08-12 06:00:00 16.3 6 Oeste 13 Noroeste 0 1015.4 -0.4 77
2019-08-12 05:00:00 16.7 7 Noroeste 15 Noroeste 0 1015.4 -0.4 74
2019-08-12 04:00:00 16.8 8 Noroeste 19 Noroeste 0 1015.6 -0.3 75
2019-08-12 03:00:00 16.8 10 Noroeste 17 Noroeste 0 1015.8 -0.1 76
2019-08-12 02:00:00 16.9 7 Sudoeste 13 Oeste 0 1015.8 0.4 81
2019-08-12 01:00:00 17.1 6 Noroeste 16 Oeste 0 1015.9 1 80
2019-08-12 00:00:00 16.9 10 Oeste 18 Noroeste 0 1015.9 1.4 79
2019-08-11 23:00:00 17.4 13 Noroeste 24 Oeste 0 1015.4 1.5 81
2019-08-11 22:00:00 17.4 8 Oeste 30 Oeste 0 1014.9 1.1 82
2019-08-11 21:00:00 18.4 18 Oeste 30 Noroeste 0.2 1014.5 0.8 80
2019-08-11 20:00:00 19.2 21 Oeste 32 Oeste 0 1013.9 0.3 68
2019-08-11 19:00:00 19.9 19 Oeste 34 Oeste 0 1013.8 0.3 69
2019-08-11 18:00:00 20.7 21 Oeste 34 Noroeste 0 1013.7 0.1 65
2019-08-11 17:00:00 21.1 24 Oeste 36 Oeste 0 1013.6 0.1 63
2019-08-11 16:00:00 21.2 23 Oeste 35 Oeste 0 1013.5 0.2 65
2019-08-11 15:00:00 20.2 12 Oeste 27 Oeste 0 1013.6 0.6 73
2019-08-11 14:00:00 18.2 17 Sudoeste 34 Oeste 1.2 1013.5 0.8 77
2019-08-11 13:00:00 19.7 9 Oeste 26 Noroeste 0 1013.3 0.9 71
2019-08-11 12:00:00 19.9 13 Oeste 23 Sudoeste 0 1013 0.8 67
2019-08-11 11:00:00 18.8 12 Sudoeste 32 Sudoeste 0 1012.7 0.7 70
2019-08-11 10:00:00 19 8 Sudoeste 19 Sudoeste 0 1012.4 0.5 76
2019-08-11 09:00:00 16.9 12 Sudoeste 18 Sur 0 1012.2 0.4 85
2019-08-11 08:00:00 16.8 5 Sur 18 Sudoeste 0 1012 0 85
2019-08-11 07:00:00 16.7 5 Sudoeste 13 Sudoeste 0 1011.9 -0.7 84
2019-08-11 06:00:00 16.9 8 Sudoeste 15 Sudoeste 0 1011.8 -1.1 83
2019-08-11 05:00:00 17.1 9 Sudoeste 15 Sudoeste 0 1012 -1.2 83
2019-08-11 04:00:00 17.1 8 Sudoeste 22 Sudoeste 0 1012.6 -0.8 84
2019-08-11 03:00:00 17.6 3 Sur 9 Sudoeste 0 1012.9 -0.6 81
2019-08-11 02:00:00 17.8 4 Sudoeste 11 Sudoeste 0 1013.2 -0.6 81
2019-08-11 01:00:00 17.9 7 Sudoeste 15 Oeste 0 1013.4 -0.4 82
2019-08-11 00:00:00 18.1 8 Oeste 16 Oeste 0 1013.5 -0.2 80
2019-08-10 23:00:00 18.5 6 Oeste 13 Oeste 0 1013.8 0.6 80
2019-08-10 22:00:00 19 9 Oeste 21 Noroeste 0 1013.8 0.4 77
2019-08-10 21:00:00 19.6 12 Oeste 31 Oeste 0 1013.7 0.6 73
2019-08-10 20:00:00 20.1 21 Oeste 38 Oeste 0 1013.2 0 67
2019-08-10 19:00:00 21 26 Oeste 39 Oeste 0 1013.4 0 64
2019-08-10 18:00:00 21.5 21 Oeste 37 Oeste 0 1013.1 -0.4 66
2019-08-10 17:00:00 22.3 27 Oeste 40 Oeste 0 1013.2 -0.4 65
2019-08-10 16:00:00 22.3 24 Oeste 36 Oeste 0 1013.4 0 65
2019-08-10 15:00:00 22.6 21 Oeste 31 Oeste 0 1013.5 -0.1 64
2019-08-10 14:00:00 22.2 17 Oeste 33 Noroeste 0 1013.6 0.2 62
2019-08-10 13:00:00 21.4 22 Oeste 30 Oeste 0 1013.4 0.1 68
2019-08-10 12:00:00 21.4 13 Oeste 26 Oeste 0 1013.6 0.8 62
2019-08-10 11:00:00 19.9 12 Oeste 26 Sudoeste 0 1013.4 1 69
2019-08-10 10:00:00 19.8 11 Sudoeste 25 Sudoeste 0 1013.3 1.5 73
2019-08-10 09:00:00 17.8 8 Sudoeste 20 Sur 0 1012.8 1.4 80
2019-08-10 08:00:00 17.6 12 Sudoeste 20 Sudoeste 0 1012.4 1 81
2019-08-10 07:00:00 17.7 10 Sudoeste 18 Sudoeste 0 1011.8 0.5 81
2019-08-10 06:00:00 17.9 13 Sudoeste 19 Sudoeste 0 1011.4 0.4 81
2019-08-10 05:00:00 17.9 12 Sudoeste 24 Sudoeste 0 1011.4 0.2 80
2019-08-10 04:00:00 18.1 13 Sudoeste 21 Sudoeste 0 1011.3 0.5 79
2019-08-10 03:00:00 18.3 12 Sudoeste 21 Sudoeste 0 1011 0.5 78
2019-08-10 02:00:00 18.6 10 Sudoeste 23 Sudoeste 0 1011.2 0.9 77
2019-08-10 01:00:00 18.9 9 Sudoeste 27 Sudoeste 0 1010.8 1.3 76
2019-08-10 00:00:00 19.2 13 Sudoeste 28 Sudoeste 0 1010.5 1.7 74
2019-08-09 23:00:00 19.5 12 Sudoeste 27 Sudoeste 0 1010.3 2.2 72
2019-08-09 22:00:00 20.3 12 Sudoeste 36 Sudoeste 0 1009.5 2.2 68
2019-08-09 21:00:00 21.3 17 Sudoeste 41 Sudoeste 0 1008.8 1.8 62
2019-08-09 20:00:00 22.3 20 Sudoeste 49 Sudoeste 0 1008.1 1.6 56
2019-08-09 19:00:00 22.5 31 Sudoeste 49 Oeste 0 1007.3 1.3 55
2019-08-09 18:00:00 23.3 19 Sudoeste 51 Sudoeste 0 1007 1.6 57
2019-08-09 17:00:00 23.2 28 Sudoeste 53 Sudoeste 0 1006.5 2 56
2019-08-09 16:00:00 23.3 32 Sudoeste 57 Sudoeste 0 1006 2.3 59
2019-08-09 15:00:00 23.2 26 Sudoeste 57 Sudoeste 0 1005.4 2.3 62
2019-08-09 14:00:00 24.1 31 Sudoeste 69 Sudoeste 0 1004.5 2.2 55
2019-08-09 13:00:00 24.2 30 Sudoeste 70 Sudoeste 0 1003.7 1.6 55
2019-08-09 12:00:00 23.2 32 Sudoeste 65 Sudoeste 0 1003.1 1.8 58
2019-08-09 11:00:00 23.1 29 Sudoeste 55 Sudoeste 0 1002.3 1.2 60
2019-08-09 10:00:00 21.9 29 Sudoeste 53 Sudoeste 0 1002.1 1.4 67
2019-08-09 09:00:00 20.9 23 Sudoeste 49 Sudoeste 0 1001.3 0.8 69
2019-08-09 08:00:00 20.6 19 Sudoeste 48 Sudoeste 0 1001.1 0.3 71
2019-08-09 07:00:00 20.5 24 Sudoeste 47 Sudoeste 0 1000.7 0 70
2019-08-09 06:00:00 20.5 19 Sudoeste 37 Sur 0 1000.5 0.1 71
2019-08-09 05:00:00 20.5 19 Sudoeste 50 Sudoeste 0 1000.8 0.3 71
2019-08-09 04:00:00 20.5 17 Sudoeste 42 Sudoeste 0 1000.7 0.3 70
2019-08-09 03:00:00 20.4 18 Sur 42 Sudoeste 0 1000.4 0.2 71
2019-08-09 02:00:00 20.1 22 Sudoeste 39 Sudoeste 0 1000.5 0.4 74
2019-08-09 01:00:00 20.3 20 Sudoeste 37 Sudoeste 0 1000.4 1.3 75
2019-08-09 00:00:00 20.7 19 Sudoeste 36 Sudoeste 0 1000.2 1.9 75
2019-08-08 23:00:00 21.1 21 Sudoeste 45 Sudoeste 0 1000.1 2.1 80
2019-08-08 22:00:00 20.9 9 Oeste 30 Sudoeste 0 999.1 0.3 93
2019-08-08 21:00:00 22.6 12 Sur 48 Sur 3.2 998.3 -0.8 88
2019-08-08 20:00:00 22.9 15 Sur 46 Sur 0.2 998 -1.2 85
2019-08-08 19:00:00 23.8 24 Sur 51 Sur 0.2 998.8 -0.2 81
2019-08-08 18:00:00 23.2 20 Sur 42 Sur 1.6 999.1 -0.3 85
2019-08-08 17:00:00 24.2 24 Sur 57 Sudoeste 0 999.2 -0.7 77
2019-08-08 16:00:00 25.5 26 Sur 62 Sudoeste 0 999 -1.5 71
2019-08-08 15:00:00 26.1 24 Sudoeste 60 Sur 0 999.4 -1.3 69
2019-08-08 14:00:00 26.2 20 Sur 45 Sur 0 999.9 -0.6 71
2019-08-08 13:00:00 24.9 14 Sur 33 Sudeste 0 1000.5 -0.6 76
2019-08-08 12:00:00 24.4 17 Sur 43 Sur 0 1000.7 -0.2 75
2019-08-08 11:00:00 24.9 18 Sur 39 Sur 0 1000.5 -0.1 71
2019-08-08 10:00:00 24.1 19 Sur 36 Sudoeste 0 1001.1 0.3 73
2019-08-08 09:00:00 22.4 7 Sur 35 Sur 0 1000.9 0.2 78
2019-08-08 08:00:00 22.1 13 Sur 42 Sur 0 1000.6 -0.5 79
2019-08-08 07:00:00 22.2 14 Sudoeste 28 Sudoeste 0 1000.8 -0.7 80
2019-08-08 06:00:00 21.5 10 Sur 27 Sur 0 1000.7 -1 86
2019-08-08 05:00:00 21.2 11 Sur 28 Sur 0 1001.1 -0.7 86
2019-08-08 04:00:00 21 16 Sur 32 Sur 0 1001.5 -0.5 86
2019-08-08 03:00:00 20.9 15 Sur 35 Sur 0 1001.7 -0.7 84
2019-08-08 02:00:00 21 7 Sur 38 Sur 0 1001.8 -0.5 82
2019-08-08 01:00:00 21.1 21 Sur 43 Sudeste 0 1002 0 81
2019-08-08 00:00:00 21.3 23 Sur 44 Sur 0 1002.4 0.3 79
2019-08-07 23:00:00 21.5 19 Sur 45 Sur 0 1002.3 0 79
2019-08-07 22:00:00 21.6 10 Sur 30 Sur 0.2 1002 -0.9 83
2019-08-07 21:00:00 22.3 15 Sudeste 36 Sur 0 1002.1 -1 80
2019-08-07 20:00:00 22.9 16 Sur 32 Sur 0 1002.3 -1 78
2019-08-07 19:00:00 22.8 13 Sur 34 Sur 0 1002.9 -0.5 77
2019-08-07 18:00:00 23.2 14 Sur 35 Sur 0 1003.1 -0.4 74
2019-08-07 17:00:00 23.5 18 Sudoeste 49 Sudoeste 0 1003.3 -0.3 71
2019-08-07 16:00:00 23.7 16 Sur 37 Sudoeste 0 1003.4 -0.5 72
2019-08-07 15:00:00 24 13 Sur 40 Sur 0 1003.5 -0.6 73
2019-08-07 14:00:00 22.7 17 Sur 39 Sur 0 1003.6 -0.7 78
2019-08-07 13:00:00 20.8 9 Sudeste 23 Sudeste 1.2 1003.9 -0.2 93
2019-08-07 12:00:00 21.1 9 Sudeste 19 Sur 0.4 1004.1 0 88
2019-08-07 11:00:00 21.7 5 Sudeste 22 Sudeste 0 1004.3 0.5 81
2019-08-07 10:00:00 21.1 9 Sur 21 Sudoeste 0 1004.1 0.1 81
2019-08-07 09:00:00 19.7 0 Calma 9 Sudeste 0 1004.1 -0.1 87
2019-08-07 08:00:00 18.9 4 Sudeste 9 Sudeste 0 1003.8 -0.6 88
2019-08-07 07:00:00 18.7 4 Sudeste 9 Sur 0 1004 -0.4 88
2019-08-07 06:00:00 18.8 4 Sudeste 12 Sudeste 0 1004.2 -0.6 89
2019-08-07 05:00:00 18.7 5 Sudeste 8 Sudeste 0 1004.4 -0.8 93
2019-08-07 04:00:00 18.9 4 Sudeste 9 Sudeste 0 1004.4 -1.4 93
2019-08-07 03:00:00 19.3 7 Sur 14 Sur 0 1004.8 -1.5 93
2019-08-07 02:00:00 19.4 8 Sudeste 12 Sur 0 1005.2 -1.4 93
2019-08-07 01:00:00 19.4 5 Este 9 Este 0 1005.8 -0.4 95
2019-08-07 00:00:00 19.3 0 Calma 8 Oeste 0 1006.3 0.2 95
2019-08-06 23:00:00 19.3 3 Sudoeste 9 Oeste 0 1006.6 0.8 95
2019-08-06 22:00:00 19.2 5 Noroeste 10 Oeste 0 1006.2 0.3 95
2019-08-06 21:00:00 19.4 6 Oeste 10 Oeste 0 1006.1 0 94
2019-08-06 20:00:00 19.6 6 Norte 14 Norte 0 1005.8 -0.8 93
2019-08-06 19:00:00 19.8 6 Noroeste 15 Norte 0 1005.9 -1.3 93
2019-08-06 18:00:00 20.3 13 Oeste 28 Oeste 0 1006.1 -1.2 90
2019-08-06 17:00:00 21.5 4 Oeste 34 Oeste 0 1006.6 -0.6 85
2019-08-06 16:00:00 21.9 18 Oeste 28 Oeste 0 1007.2 0 80
2019-08-06 15:00:00 22.4 15 Oeste 23 Oeste 0 1007.3 0.2 78
2019-08-06 14:00:00 22.7 5 Norte 16 Oeste 0 1007.2 0.3 76
2019-08-06 13:00:00 21.8 8 Oeste 21 Oeste 0 1007.2 0.3 79
2019-08-06 12:00:00 22.3 8 Sudoeste 22 Sur 0 1007.1 0.6 75
2019-08-06 11:00:00 21.7 6 Sur 19 Sur 0 1006.9 0.4 76
2019-08-06 10:00:00 21.2 9 Sur 16 Sur 0 1006.9 0.4 78
2019-08-06 09:00:00 20.4 7 Sudeste 13 Sudeste 0 1006.5 0.1 80
2019-08-06 08:00:00 19.9 6 Sur 13 Oeste 0 1006.5 -0.5 82
2019-08-06 07:00:00 19.8 7 Oeste 13 Sur 0 1006.5 -1 82
2019-08-06 06:00:00 19.7 6 Sur 13 Sur 0 1006.4 -1.5 84
2019-08-06 05:00:00 19.6 4 Sudeste 9 Sur 0 1007 -1.3 88
2019-08-06 04:00:00 19.8 3 Sudeste 8 Sur 0 1007.5 -1 86
2019-08-06 03:00:00 20 3 Sudeste 8 Sur 0 1007.9 -1 87
2019-08-06 02:00:00 19.9 4 Oeste 8 Sudoeste 0 1008.3 -0.7 88
2019-08-06 01:00:00 19.9 5 Oeste 10 Sudoeste 0 1008.5 0.1 88
2019-08-06 00:00:00 19.9 4 Oeste 8 Oeste 0 1008.9 0.5 86
2019-08-05 23:00:00 19.8 3 Nordeste 6 Nordeste 0 1009 0.6 87
2019-08-05 22:00:00 19.6 4 Nordeste 10 Noroeste 0 1008.4 0 90
2019-08-05 21:00:00 19.6 4 Nordeste 16 Noroeste 0 1008.4 -0.1 90
2019-08-05 20:00:00 20.4 12 Noroeste 24 Noroeste 0 1008.4 -0.1 88
2019-08-05 19:00:00 21.3 11 Noroeste 28 Oeste 0 1008.4 -0.3 83
2019-08-05 18:00:00 23 17 Oeste 32 Oeste 0 1008.5 -0.3 76
2019-08-05 17:00:00 23.1 22 Oeste 33 Oeste 0 1008.5 -0.5 74
2019-08-05 16:00:00 23.7 14 Oeste 25 Oeste 0 1008.7 -0.7 69
2019-08-05 15:00:00 24.4 11 Norte 19 Noroeste 0 1008.8 -0.7 61
2019-08-05 14:00:00 24.1 7 Norte 16 Nordeste 0 1009 -0.5 58
2019-08-05 13:00:00 23.3 8 Nordeste 12 Norte 0 1009.4 -0.2 58
2019-08-05 12:00:00 22.6 6 Nordeste 11 Sudeste 0 1009.5 -0.2 62
2019-08-05 11:00:00 21.6 4 Nordeste 7 Sudeste 0 1009.5 -0.1 65
2019-08-05 10:00:00 19.9 3 Este 10 Sudeste 0 1009.6 0.1 69
2019-08-05 09:00:00 18.4 3 Este 9 Sur 0 1009.7 0 73
2019-08-05 08:00:00 17.2 6 Sur 13 Sur 0 1009.6 -0.3 77
2019-08-05 07:00:00 16.8 7 Sudeste 12 Sudeste 0 1009.5 -0.7 79
2019-08-05 06:00:00 17 6 Sur 9 Sur 0 1009.7 -0.6 79
2019-08-05 05:00:00 16.9 4 Sudeste 7 Sudeste 0 1009.9 -0.6 81
2019-08-05 04:00:00 17.5 4 Sur 7 Sudeste 0 1010.2 -0.6 79
2019-08-05 03:00:00 17.8 5 Sur 12 Sur 0 1010.3 -0.7 80
2019-08-05 02:00:00 18.3 8 Sur 11 Sur 0 1010.5 -0.5 79
2019-08-05 01:00:00 18.5 5 Sur 7 Sudeste 0 1010.8 0.2 79
2019-08-05 00:00:00 18.6 2 Sur 6 Sudoeste 0 1011 0.6 79
2019-08-04 23:00:00 18.7 4 Oeste 8 Sudoeste 0 1011 0.6 81
2019-08-04 22:00:00 19.3 5 Oeste 14 Oeste 0 1010.6 0.4 78
2019-08-04 21:00:00 19.9 10 Oeste 17 Oeste 0 1010.4 0.1 74
2019-08-04 20:00:00 20.4 10 Oeste 19 Oeste 0 1010.4 0.3 73
2019-08-04 19:00:00 21.3 14 Oeste 22 Oeste 0 1010.2 0.1 70
2019-08-04 18:00:00 22.8 12 Oeste 23 Noroeste 0 1010.3 0 64
2019-08-04 17:00:00 23.1 15 Oeste 23 Oeste 0 1010.1 0.2 65
2019-08-04 16:00:00 21.9 14 Noroeste 26 Norte 0 1010.1 -0.2 72
2019-08-04 15:00:00 21.4 16 Noroeste 26 Noroeste 0 1010.3 0.3 74
2019-08-04 14:00:00 21.8 12 Norte 22 Noroeste 0 1009.9 -0.3 70
2019-08-04 13:00:00 21.4 12 Noroeste 19 Norte 0 1010.3 0.2 74
2019-08-04 12:00:00 21.1 9 Norte 17 Noroeste 0 1010 0.4 78
2019-08-04 11:00:00 20.4 9 Noroeste 15 Noroeste 0 1010.2 0.8 82
2019-08-04 10:00:00 19.5 10 Oeste 15 Oeste 0 1010.1 0.9 86
2019-08-04 09:00:00 19.1 8 Noroeste 14 Noroeste 0 1009.6 0.4 88
2019-08-04 08:00:00 18.8 8 Noroeste 18 Noroeste 0 1009.4 0 90
2019-08-04 07:00:00 19 8 Noroeste 16 Noroeste 0 1009.2 -0.2 94
2019-08-04 06:00:00 19.3 7 Oeste 11 Oeste 0 1009.2 -0.4 94
2019-08-04 05:00:00 19.4 5 Noroeste 8 Noroeste 0 1009.4 -0.2 92
2019-08-04 04:00:00 19.6 4 Noroeste 7 Oeste 0 1009.4 -0.3 92
2019-08-04 03:00:00 19.5 4 Oeste 8 Oeste 0 1009.6 0 92
2019-08-04 02:00:00 19.7 5 Oeste 10 Oeste 0 1009.6 -0.2 91
2019-08-04 01:00:00 19.9 6 Noroeste 11 Oeste 0 1009.7 0.4 89
2019-08-04 00:00:00 20.1 7 Oeste 9 Oeste 0 1009.6 0.4 88
2019-08-03 23:00:00 20 4 Nordeste 10 Noroeste 0 1009.8 0.9 87
2019-08-03 22:00:00 19.8 7 Noroeste 13 Noroeste 0 1009.3 0.2 85
2019-08-03 21:00:00 20.5 5 Noroeste 12 Norte 0 1009.2 0 78
2019-08-03 20:00:00 20.5 9 Noroeste 14 Norte 0 1008.9 -0.5 77
2019-08-03 19:00:00 21.4 8 Norte 15 Noroeste 0 1009.1 -0.4 74
2019-08-03 18:00:00 22 10 Norte 22 Noroeste 0 1009.2 -0.2 75
2019-08-03 17:00:00 22.5 12 Noroeste 22 Oeste 0 1009.4 0.1 73
2019-08-03 16:00:00 22.3 16 Noroeste 30 Oeste 0 1009.5 0.1 74
2019-08-03 15:00:00 22.4 18 Oeste 28 Oeste 0 1009.4 0.3 76
2019-08-03 14:00:00 22.3 17 Oeste 27 Oeste 0 1009.3 0.4 76
2019-08-03 13:00:00 22.7 11 Noroeste 21 Noroeste 0 1009.4 0.5 71
2019-08-03 12:00:00 21.2 6 Nordeste 12 Norte 0 1009.1 0.1 79
2019-08-03 11:00:00 20.1 3 Este 11 Sur 0 1008.9 0.2 82
2019-08-03 10:00:00 19.1 6 Sudeste 15 Sudeste 0 1008.9 0.3 84
2019-08-03 09:00:00 18.6 7 Sudeste 15 Sudeste 0 1009 0.4 86
2019-08-03 08:00:00 18.6 4 Sudeste 12 Sudeste 0 1008.7 0.1 87
2019-08-03 07:00:00 18.6 6 Sudeste 13 Sudeste 0 1008.6 -0.3 87
2019-08-03 06:00:00 18.5 7 Sudeste 11 Sudeste 0 1008.6 -0.4 88
2019-08-03 05:00:00 18.7 6 Sudeste 10 Sudoeste 0 1008.6 -0.7 89
2019-08-03 04:00:00 18.7 5 Sudoeste 15 Sudoeste 0 1008.9 -0.8 92
2019-08-03 03:00:00 18.8 2 Sudoeste 15 Oeste 0 1009 -1 92
2019-08-03 02:00:00 19.2 8 Sudoeste 14 Sudoeste 0 1009.3 -0.8 91
2019-08-03 01:00:00 19.4 6 Sudoeste 17 Oeste 0 1009.7 -0.1 92
2019-08-03 00:00:00 19.4 5 Oeste 20 Oeste 0 1010 0.3 93
2019-08-02 23:00:00 19.3 8 Oeste 22 Oeste 0 1010.1 0.6 93
2019-08-02 22:00:00 19.3 11 Oeste 23 Oeste 0 1009.8 0.2 91
2019-08-02 21:00:00 20.1 11 Oeste 28 Oeste 0 1009.7 -0.1 86
2019-08-02 20:00:00 21.7 12 Oeste 23 Sudoeste 0 1009.5 -0.7 78
2019-08-02 19:00:00 22.9 8 Oeste 13 Oeste 0 1009.6 -0.8 69
2019-08-02 18:00:00 22.9 10 Norte 15 Norte 0 1009.8 -0.8 69
2019-08-02 17:00:00 23 9 Noroeste 17 Norte 0 1010.2 -0.5 68
2019-08-02 16:00:00 23.1 13 Norte 22 Noroeste 0 1010.4 -0.4 68
2019-08-02 15:00:00 22.5 12 Noroeste 20 Norte 0 1010.6 -0.3 70
2019-08-02 14:00:00 22.6 13 Noroeste 19 Norte 0 1010.7 -0.3 69
2019-08-02 13:00:00 23.2 8 Nordeste 13 Nordeste 0 1010.8 -0.1 65
2019-08-02 12:00:00 21.4 4 Nordeste 8 Nordeste 0 1010.9 0.3 71
2019-08-02 11:00:00 19.3 3 Nordeste 9 Norte 0 1011 0.8 84
2019-08-02 10:00:00 18.3 5 Este 7 Este 0 1010.9 1.1 88
2019-08-02 09:00:00 17.5 4 Nordeste 5 Este 0 1010.6 0.7 91
2019-08-02 08:00:00 16.5 0 Calma 3 Este 0 1010.2 0.3 93
2019-08-02 07:00:00 16.4 2 Este 3 Este 0 1009.8 -0.2 94
2019-08-02 06:00:00 16.8 0 Calma 4 Nordeste 0 1009.9 -0.2 93
2019-08-02 05:00:00 17.2 0 Calma 4 Norte 0 1009.9 -0.6 92
2019-08-02 04:00:00 17.4 4 Norte 6 Oeste 0 1010 -0.9 91
2019-08-02 03:00:00 17.7 3 Oeste 4 Noroeste 0 1010.1 -0.8 90
2019-08-02 02:00:00 17.9 3 Norte 8 Norte 0 1010.5 -0.3 88
2019-08-02 01:00:00 18.4 6 Norte 13 Nordeste 0 1010.9 0.8 86
2019-08-02 00:00:00 18.2 9 Nordeste 20 Norte 0 1010.9 1.2 86
2019-08-01 23:00:00 18.1 12 Norte 20 Nordeste 0 1010.8 1.6 87
2019-08-01 22:00:00 18.8 12 Nordeste 24 Norte 0 1010.1 0.9 84
2019-08-01 21:00:00 19.4 11 Norte 28 Norte 0 1009.7 0.8 81
2019-08-01 20:00:00 19.4 15 Norte 35 Norte 0 1009.2 0.5 81
2019-08-01 19:00:00 19.6 23 Norte 36 Norte 0 1009.2 0.3 80
2019-08-01 18:00:00 20.4 15 Norte 30 Norte 0 1008.9 0 74
2019-08-01 17:00:00 20.8 15 Norte 41 Norte 0 1008.7 -0.2 73
2019-08-01 16:00:00 20.9 31 Norte 44 Norte 0 1008.9 0.2 72
2019-08-01 15:00:00 20.3 28 Norte 43 Norte 0 1008.9 -0.1 76
2019-08-01 14:00:00 20.3 19 Norte 36 Norte 0 1008.9 0.1 76
2019-08-01 13:00:00 20.5 16 Norte 32 Norte 0 1008.7 0.1 75
2019-08-01 12:00:00 19.5 18 Norte 28 Norte 0 1009 0.5 79
2019-08-01 11:00:00 19.4 12 Norte 22 Norte 0 1008.8 0.5 80
2019-08-01 10:00:00 19 13 Norte 22 Nordeste 0 1008.6 0.4 82
2019-08-01 09:00:00 18 14 Nordeste 25 Norte 0 1008.5 0.4 85
2019-08-01 08:00:00 17.7 10 Norte 19 Norte 0 1008.3 -0.2 86
2019-08-01 07:00:00 17.4 10 Norte 19 Nordeste 0 1008.2 -0.8 86
2019-08-01 06:00:00 17.3 11 Nordeste 18 Norte 0 1008.1 -1.1 86
2019-08-01 05:00:00 17.6 9 Norte 15 Norte 0 1008.5 -1.1 82
2019-08-01 04:00:00 17.5 8 Nordeste 19 Nordeste 0 1009 -0.8 81
2019-08-01 03:00:00 17.6 12 Nordeste 22 Nordeste 0 1009.2 -0.8 80
2019-08-01 02:00:00 17.5 9 Nordeste 18 Nordeste 0 1009.6 -0.4 79
2019-08-01 01:00:00 17.7 12 Nordeste 21 Nordeste 0 1009.8 0.2 79
2019-08-01 00:00:00 18 13 Nordeste 23 Nordeste 0 1010 0.5 77
2019-07-31 23:00:00 18.4 14 Nordeste 24 Nordeste 0 1010 0.4 75
2019-07-31 22:00:00 18.5 13 Norte 27 Norte 0 1009.6 0 78
2019-07-31 21:00:00 18.6 15 Norte 35 Norte 0 1009.5 -0.3 77
2019-07-31 20:00:00 18.8 23 Norte 39 Norte 0 1009.6 -1.1 76
2019-07-31 19:00:00 19.1 25 Norte 42 Norte 0 1009.6 -1.3 75
2019-07-31 18:00:00 19.2 27 Norte 41 Norte 0 1009.8 -1.4 76
2019-07-31 17:00:00 19.9 24 Norte 37 Norte 0 1010.7 -0.8 73
2019-07-31 16:00:00 20.4 23 Norte 37 Norte 0 1010.9 -1.3 68
2019-07-31 15:00:00 21.6 18 Norte 32 Norte 0 1011.2 -1.3 62
2019-07-31 14:00:00 21.3 20 Norte 30 Norte 0 1011.5 -1.3 63
2019-07-31 13:00:00 20.2 12 Noroeste 22 Noroeste 0 1012.2 -0.4 67
2019-07-31 12:00:00 19.7 12 Norte 19 Noroeste 0 1012.5 -0.1 64
2019-07-31 11:00:00 19.3 9 Nordeste 14 Nordeste 0 1012.8 0 58
2019-07-31 10:00:00 17.1 4 Este 10 Este 0 1012.6 -0.1 67
2019-07-31 09:00:00 15.3 3 Sudeste 9 Sudeste 0 1012.6 -0.1 75
2019-07-31 08:00:00 14.4 3 Sudeste 9 Sudeste 0 1012.8 -0.2 80
2019-07-31 07:00:00 14.1 2 Sur 5 Sudeste 0 1012.7 -0.6 81
2019-07-31 06:00:00 14.4 4 Sudeste 10 Sudeste 0 1012.7 -1 80
2019-07-31 05:00:00 14.9 4 Sudeste 10 Sur 0 1013 -1.1 78
2019-07-31 04:00:00 15.3 3 Sudeste 8 Sur 0 1013.3 -1.1 76
2019-07-31 03:00:00 15.8 5 Sudeste 7 Sudeste 0 1013.7 -0.9 75
2019-07-31 02:00:00 16.3 3 Sudeste 6 Sur 0 1014.1 -0.6 72
2019-07-31 01:00:00 16.6 3 Sudeste 7 Sudeste 0 1014.4 -0.1 73
2019-07-31 00:00:00 17.1 3 Norte 8 Norte 0 1014.6 0.2 70
2019-07-30 23:00:00 17.3 5 Norte 11 Noroeste 0 1014.7 0.5 68
2019-07-30 22:00:00 17.6 4 Norte 16 Noroeste 0 1014.5 0.2 66
2019-07-30 21:00:00 18.1 10 Noroeste 17 Noroeste 0 1014.4 -0.3 64
2019-07-30 20:00:00 18.5 12 Noroeste 19 Noroeste 0 1014.2 -0.7 63
2019-07-30 19:00:00 18.8 13 Noroeste 23 Noroeste 0 1014.3 -0.8 62
2019-07-30 18:00:00 19.9 13 Norte 23 Noroeste 0 1014.7 -0.5 57
2019-07-30 17:00:00 20.7 14 Norte 24 Noroeste 0 1014.9 -0.4 55
2019-07-30 16:00:00 20.6 14 Noroeste 25 Noroeste 0 1015.1 -0.1 57
2019-07-30 15:00:00 20.9 13 Noroeste 25 Oeste 0 1015.2 0.1 57
2019-07-30 14:00:00 20.7 11 Noroeste 27 Oeste 0 1015.3 0.5 59
2019-07-30 13:00:00 21.3 17 Oeste 28 Noroeste 0 1015.2 0.6 57
2019-07-30 12:00:00 19.6 16 Oeste 26 Oeste 0 1015.1 1 65
2019-07-30 11:00:00 19.6 11 Oeste 24 Noroeste 0 1014.8 1.1 63
2019-07-30 10:00:00 18.6 13 Oeste 24 Oeste 0 1014.6 1.3 67
2019-07-30 09:00:00 17.5 13 Oeste 25 Oeste 0 1014.1 0.7 74
2019-07-30 08:00:00 16.7 8 Oeste 19 Noroeste 0 1013.7 0.7 77
2019-07-30 07:00:00 16.6 9 Oeste 23 Noroeste 0 1013.3 0.3 79
2019-07-30 06:00:00 16.6 11 Noroeste 31 Noroeste 0 1013.4 0.4 76
2019-07-30 05:00:00 16.9 14 Oeste 30 Oeste 0 1013 0.1 80
2019-07-30 04:00:00 17 15 Oeste 30 Oeste 0 1013 0.3 78
2019-07-30 03:00:00 16.9 15 Oeste 27 Noroeste 0 1013 0.7 77
2019-07-30 02:00:00 16.8 15 Oeste 29 Oeste 0 1012.9 1.1 80
2019-07-30 01:00:00 16.9 13 Oeste 29 Oeste 0 1012.7 1.6 75
2019-07-30 00:00:00 17.2 14 Oeste 30 Oeste 0 1012.3 1.6 77
2019-07-29 23:00:00 17 13 Oeste 29 Oeste 0 1011.8 1.8 75
2019-07-29 22:00:00 17.2 15 Oeste 30 Oeste 0 1011.1 1.2 81
2019-07-29 21:00:00 18.1 19 Oeste 42 Oeste 1.4 1010.7 1.1 79
2019-07-29 20:00:00 19.1 22 Oeste 43 Oeste 0 1010 0.9 67
2019-07-29 19:00:00 19.7 21 Oeste 46 Oeste 0 1009.9 1.3 66
2019-07-29 18:00:00 19.6 21 Sudoeste 48 Oeste 0 1009.6 1.5 63
2019-07-29 17:00:00 21.5 27 Oeste 52 Oeste 0 1009.1 1.2 58
2019-07-29 16:00:00 21.2 28 Sudoeste 52 Oeste 0 1008.6 1.6 58
2019-07-29 15:00:00 21.2 31 Oeste 50 Oeste 0 1008.1 1.6 61
2019-07-29 14:00:00 22.1 29 Oeste 56 Oeste 0 1007.9 2 57
2019-07-29 13:00:00 21.2 30 Sudoeste 54 Oeste 0 1007 1.6 59
2019-07-29 12:00:00 20.5 28 Oeste 46 Sudoeste 0 1006.5 1.6 64
2019-07-29 11:00:00 20.3 19 Oeste 45 Oeste 0 1005.9 1.4 63
2019-07-29 10:00:00 18.7 24 Sudoeste 45 Oeste 0 1005.4 1.7 71
2019-07-29 09:00:00 18.2 21 Sudoeste 43 Sudoeste 0 1004.9 1.3 72
2019-07-29 08:00:00 17.5 23 Sudoeste 43 Sudoeste 0 1004.5 0.9 78
2019-07-29 07:00:00 17.6 22 Sudoeste 42 Sudoeste 0 1003.7 0.4 76
2019-07-29 06:00:00 17.8 14 Sudoeste 32 Sudoeste 0 1003.6 0.4 76
2019-07-29 05:00:00 18.2 17 Sudoeste 34 Oeste 0 1003.6 0.8 80
2019-07-29 04:00:00 18.9 19 Sudoeste 42 Sudoeste 0 1003.3 0.6 76
2019-07-29 03:00:00 18.6 14 Oeste 28 Sudoeste 0 1003.2 0.3 82
2019-07-29 02:00:00 18.8 12 Sur 31 Sur 0 1002.8 -0.2 81
2019-07-29 01:00:00 19 13 Sur 32 Sur 0 1002.7 -0.2 74
2019-07-29 00:00:00 19.5 11 Sur 30 Sur 0 1002.9 0.2 67
2019-07-28 23:00:00 20.3 7 Sur 23 Sur 0 1003 0.4 54
2019-07-28 22:00:00 19.9 12 Sur 23 Sudoeste 0 1002.9 0.2 58
2019-07-28 21:00:00 19.2 4 Nordeste 12 Norte 0 1002.7 -0.4 73
2019-07-28 20:00:00 19.9 10 Noroeste 21 Noroeste 0 1002.6 -0.9 68
2019-07-28 19:00:00 20.9 11 Noroeste 25 Oeste 0 1002.7 -1.2 59
2019-07-28 18:00:00 22 16 Oeste 26 Oeste 0 1003.1 -1.5 57
2019-07-28 17:00:00 22.5 16 Oeste 24 Oeste 0 1003.5 -1.7 55
2019-07-28 16:00:00 21.4 12 Norte 18 Norte 0 1003.9 -1.8 67
2019-07-28 15:00:00 21 9 Norte 18 Noroeste 0 1004.6 -1.4 69
2019-07-28 14:00:00 21 11 Norte 18 Noroeste 0 1005.2 -1.2 66
2019-07-28 13:00:00 21.1 9 Norte 16 Norte 0 1005.7 -1 58
2019-07-28 12:00:00 21.3 8 Norte 13 Nordeste 0 1006 -0.8 59
2019-07-28 11:00:00 19.9 6 Este 12 Este 0 1006.4 -0.6 64
2019-07-28 10:00:00 18 8 Sudeste 13 Sudeste 0 1006.7 -0.3 73
2019-07-28 09:00:00 15.1 5 Sudeste 12 Sudeste 0 1006.8 0.1 89
2019-07-28 08:00:00 14.5 0 Calma 10 Sudeste 0 1007 -0.4 92
2019-07-28 07:00:00 14.6 4 Este 17 Sudeste 0 1007 -0.9 91
2019-07-28 06:00:00 15.1 9 Sudeste 16 Sudeste 0 1006.7 -1.3 90
2019-07-28 05:00:00 15.8 5 Sur 8 Sur 0 1007.4 -1.2 87
2019-07-28 04:00:00 16.1 0 Calma 4 Sudeste 0 1007.9 -0.7 87
2019-07-28 03:00:00 16.4 2 Norte 5 Sudeste 0 1008 -0.6 86
2019-07-28 02:00:00 16.9 2 Este 7 Este 0 1008.6 0.3 84
2019-07-28 01:00:00 17.2 5 Nordeste 9 Norte 0 1008.6 0.7 83
2019-07-28 00:00:00 17.3 6 Nordeste 12 Nordeste 0 1008.6 0.9 84
2019-07-27 23:00:00 17.6 8 Norte 20 Nordeste 0 1008.3 0.9 83
2019-07-26 12:00:00 21.6 19 Oeste 28 Noroeste 0 1009.9 0.4 66
2019-07-26 11:00:00 20 9 Oeste 22 Oeste 0 1009.9 0.6 72
2019-07-26 10:00:00 19.7 12 Sudoeste 24 Sudoeste 0 1009.7 0.5 78
2019-07-26 09:00:00 18 13 Sudoeste 22 Sudoeste 0 1009.5 0.8 85
2019-07-26 08:00:00 17.7 12 Sudoeste 20 Oeste 0 1009.3 0.4 86
2019-07-26 07:00:00 17.8 11 Sudoeste 19 Sudoeste 0 1009.2 0.2 86
2019-07-26 06:00:00 17.9 12 Sudoeste 22 Sudoeste 0 1008.7 -0.4 86
2019-07-26 05:00:00 18 13 Oeste 23 Oeste 0 1008.9 -0.5 87
2019-07-26 04:00:00 18 12 Sudoeste 21 Oeste 0 1009 -0.4 87
2019-07-26 03:00:00 18.1 8 Sudoeste 19 Sudoeste 0 1009.1 -0.2 87
2019-07-26 02:00:00 18.4 10 Sudoeste 20 Sudoeste 0 1009.4 0.6 85
2019-07-26 01:00:00 19 11 Sudoeste 24 Sudoeste 0 1009.4 1.3 81
2019-07-26 00:00:00 19.1 12 Sudoeste 21 Sudoeste 0 1009.3 1.6 79
2019-07-25 23:00:00 18.9 8 Oeste 23 Oeste 0 1008.8 1.9 79
2019-07-25 22:00:00 19.2 15 Oeste 32 Sudoeste 0 1008.1 1.6 79
2019-07-25 21:00:00 20 18 Oeste 39 Noroeste 0 1007.7 1 76
2019-07-25 20:00:00 20.6 19 Oeste 35 Oeste 0 1006.9 0.5 76
2019-07-25 19:00:00 22.2 17 Oeste 34 Oeste 0 1006.5 0.2 66
2019-07-25 18:00:00 22.6 14 Oeste 37 Sudoeste 0 1006.7 0.4 65
2019-07-25 17:00:00 23 18 Oeste 35 Oeste 0 1006.4 0.3 66
2019-07-25 16:00:00 23.1 14 Oeste 31 Oeste 0 1006.3 0.8 65
2019-07-25 15:00:00 21.9 14 Oeste 25 Noroeste 0 1006.3 1.2 73
2019-07-25 14:00:00 20.6 10 Oeste 25 Oeste 0 1006.1 1.7 83
2019-07-25 13:00:00 20.6 12 Oeste 26 Oeste 0 1005.5 1.4 85
2019-07-25 12:00:00 19.9 14 Oeste 30 Oeste 0 1005.1 1.4 88
2019-07-25 11:00:00 20.1 11 Oeste 22 Oeste 0 1004.4 1.3 90
2019-07-25 10:00:00 22.2 9 Sur 31 Sudoeste 0 1004.1 1.1 76
2019-07-25 09:00:00 22.1 17 Sur 40 Sur 0 1003.7 0.9 76
2019-07-25 08:00:00 21.1 8 Sur 30 Sur 0 1003.1 -0.2 79
2019-07-25 07:00:00 20.9 10 Sur 28 Sur 0 1003 -0.3 81
2019-07-25 06:00:00 20.8 9 Sur 24 Sur 0 1002.8 -1 82
2019-07-25 05:00:00 20.9 8 Sur 19 Sur 0 1003.3 -0.5 80
2019-07-25 04:00:00 20.8 4 Sudeste 18 Sur 0 1003.3 -1 78
2019-07-25 03:00:00 20.8 5 Sur 21 Sudoeste 0 1003.8 -0.9 75
2019-07-25 02:00:00 20.8 12 Sur 30 Sur 0 1003.8 -0.9 76
2019-07-25 01:00:00 21.1 8 Sur 21 Sur 0 1004.3 0.2 77
2019-07-25 00:00:00 21.7 6 Sudeste 15 Sur 0 1004.7 0.5 72
2019-07-24 23:00:00 22.9 5 Sur 30 Sur 0 1004.7 0.3 67
2019-07-24 22:00:00 24.2 12 Sur 30 Sudoeste 0 1004.1 -0.4 62
2019-07-24 21:00:00 22 4 Norte 11 Norte 0 1004.2 -0.4 75
2019-07-24 20:00:00 21.4 6 Norte 14 Norte 0 1004.4 -0.2 79
2019-07-24 19:00:00 21.9 9 Norte 19 Norte 0 1004.5 -0.7 77
2019-07-24 18:00:00 23.1 10 Noroeste 21 Norte 0 1004.6 -1.2 71
2019-07-24 17:00:00 24.5 8 Norte 14 Norte 0 1004.6 -1.6 64
2019-07-24 16:00:00 24.6 6 Norte 17 Norte 0 1005.2 -1.1 66
2019-07-24 15:00:00 24.4 10 Norte 21 Norte 0 1005.8 -0.9 67
2019-07-24 14:00:00 23.8 10 Noroeste 21 Noroeste 0 1006.2 -0.7 68
2019-07-24 13:00:00 23.8 8 Norte 19 Norte 0 1006.3 -0.5 67
2019-07-24 12:00:00 23.7 11 Norte 17 Norte 0 1006.7 -0.4 67
2019-07-24 11:00:00 23 7 Nordeste 11 Este 0 1006.9 -0.3 68
2019-07-24 10:00:00 21.6 6 Este 9 Este 0 1006.8 -0.4 72
2019-07-24 09:00:00 18.5 4 Este 6 Este 0 1007.1 0 83
2019-07-24 08:00:00 17.5 2 Nordeste 8 Sur 0 1007.2 -0.4 86
2019-07-24 07:00:00 17.5 8 Sudeste 13 Sudeste 0 1007.2 -0.8 84
2019-07-24 06:00:00 18.1 8 Sur 11 Sur 0 1007.1 -1.5 82
2019-07-24 05:00:00 18.5 6 Sudeste 13 Sur 0 1007.6 -1.8 80
2019-07-24 04:00:00 18.6 8 Sur 14 Sudeste 0 1008 -1.4 82
2019-07-24 03:00:00 18.5 10 Sur 17 Sur 0 1008.6 -1.1 85
2019-07-24 02:00:00 18.4 10 Sudeste 16 Sudeste 0 1009.4 -0.3 87
2019-07-24 01:00:00 18.2 8 Sudeste 13 Sudeste 0 1009.4 0.2 88
2019-07-24 00:00:00 18.2 0 Calma 6 Este 0 1009.7 1.4 88
2019-07-23 23:00:00 18.4 3 Este 13 Noroeste 0 1009.7 1.1 88
2019-07-23 22:00:00 18.9 7 Noroeste 14 Noroeste 0 1009.2 0.2 85
2019-07-23 21:00:00 20.3 5 Noroeste 11 Norte 0 1008.3 -0.9 77
2019-07-23 20:00:00 20.2 5 Noroeste 22 Noroeste 0 1008.6 -0.9 80
2019-07-23 19:00:00 21.2 10 Noroeste 19 Noroeste 0 1009 -0.7 77
2019-07-23 18:00:00 21.4 11 Noroeste 18 Norte 0 1009.2 0.7 76
2019-07-23 17:00:00 20.8 7 Noroeste 36 Oeste 0 1009.5 1.2 78
2019-07-23 16:00:00 21.8 27 Oeste 41 Oeste 0 1009.7 1.6 75
2019-07-23 15:00:00 23.5 14 Noroeste 36 Oeste 0 1008.5 0.7 74
2019-07-23 14:00:00 23.7 20 Oeste 31 Oeste 0 1008.3 0.5 75
2019-07-23 13:00:00 21.9 11 Oeste 22 Oeste 0 1008.1 0.4 84
2019-07-23 12:00:00 21.8 8 Oeste 16 Sudoeste 0 1007.8 0.4 86
2019-07-23 11:00:00 21.1 9 Oeste 15 Oeste 0 1007.8 -0.2 88
2019-07-23 10:00:00 19.7 10 Oeste 18 Oeste 0 1007.7 0.2 93
2019-07-23 09:00:00 18.9 4 Oeste 10 Sudeste 0 1007.4 0.5 95
2019-07-23 08:00:00 18.1 3 Sur 15 Oeste 0 1008 0.8 97
2019-07-23 07:00:00 18 2 Oeste 9 Sur 0 1007.5 0 96
2019-07-23 06:00:00 17.8 2 Sudoeste 10 Sudoeste 0 1006.9 -0.8 97
2019-07-23 05:00:00 18.1 5 Sudoeste 13 Sudoeste 0 1007.2 -1.1 96
2019-07-23 04:00:00 18.3 4 Noroeste 9 Oeste 0 1007.5 -1.4 93
2019-07-23 03:00:00 19 2 Norte 10 Noroeste 0 1007.7 -1.3 92
2019-07-23 02:00:00 19.3 2 Sudoeste 9 Sudoeste 0 1008.3 -0.8 91
2019-07-23 01:00:00 19.1 3 Oeste 13 Oeste 0 1008.9 -0.1 91
2019-07-23 00:00:00 19.6 6 Oeste 15 Sudoeste 0 1009 0.2 89
2019-07-22 23:00:00 20.7 9 Oeste 15 Oeste 0 1009.1 0.4 84
2019-07-22 22:00:00 21.6 8 Oeste 13 Oeste 0 1009 0 80
2019-07-22 21:00:00 22.4 6 Noroeste 14 Oeste 0 1008.8 -0.5 77
2019-07-22 20:00:00 22.5 7 Oeste 14 Norte 0 1008.7 -1 77
2019-07-22 19:00:00 23 7 Norte 21 Norte 0 1009 -1.1 74
2019-07-22 18:00:00 23.1 9 Norte 28 Noroeste 0 1009.3 -1.1 73
2019-07-22 17:00:00 22.6 19 Norte 31 Norte 0 1009.7 -1.2 75
2019-07-22 16:00:00 23.2 12 Noroeste 29 Norte 0 1010.1 -1.4 73
2019-07-22 15:00:00 23.8 14 Norte 27 Noroeste 0 1010.4 -1.5 70
2019-07-22 14:00:00 23.5 10 Norte 16 Norte 0 1010.9 -1.3 71
2019-07-22 13:00:00 24.8 9 Norte 13 Norte 0 1011.5 -1 67
2019-07-22 12:00:00 23.8 4 Nordeste 9 Norte 0 1011.9 -0.7 71
2019-07-22 11:00:00 22.5 5 Nordeste 7 Norte 0 1012.2 -0.5 76
2019-07-22 10:00:00 20.6 3 Nordeste 8 Nordeste 0 1012.5 -0.1 83
2019-07-22 09:00:00 18.7 2 Nordeste 4 Nordeste 0 1012.6 -0.2 92
2019-07-22 08:00:00 17.6 2 Sudeste 4 Sudeste 0 1012.7 -0.2 96
2019-07-22 07:00:00 17.5 0 Calma 3 Sudeste 0 1012.6 -1 95
2019-07-22 06:00:00 17.8 3 Noroeste 7 Noroeste 0 1012.8 -1.6 95
2019-07-22 05:00:00 18 0 Calma 7 Noroeste 0 1012.9 -1.9 96
2019-07-22 04:00:00 18 5 Noroeste 17 Norte 0 1013.6 -1.4 97
2019-07-22 03:00:00 18.1 8 Norte 18 Norte 0 1014.4 -0.6 97
2019-07-22 02:00:00 18.2 10 Norte 19 Norte 0 1014.8 -0.3 95
2019-07-22 01:00:00 18.4 9 Norte 17 Norte 0 1015 0.3 93
2019-07-22 00:00:00 18.9 11 Nordeste 21 Nordeste 0 1015 0.4 89
2019-07-21 23:00:00 18.6 12 Norte 27 Norte 0 1015.1 0.8 91
2019-07-21 22:00:00 18.8 18 Norte 30 Nordeste 0 1014.7 0.3 90
2019-07-21 21:00:00 19.1 18 Norte 40 Norte 0 1014.6 0.1 89
2019-07-21 20:00:00 19.4 23 Norte 41 Norte 0 1014.3 -0.2 87
2019-07-21 19:00:00 20.2 27 Norte 45 Norte 0 1014.4 -0.4 83
2019-07-21 18:00:00 20.6 28 Norte 42 Norte 0 1014.5 -0.6 80
2019-07-21 17:00:00 21.8 28 Norte 45 Norte 0 1014.5 -0.6 75
2019-07-21 16:00:00 21.5 14 Norte 31 Noroeste 0 1014.8 -0.2 77
2019-07-21 15:00:00 21.8 18 Norte 35 Norte 0 1015.1 0.3 75
2019-07-21 14:00:00 21.3 15 Norte 32 Norte 0 1015.1 0.3 77
2019-07-21 13:00:00 20.7 12 Noroeste 27 Noroeste 0 1015 0 79
2019-07-21 12:00:00 20.7 9 Norte 16 Noroeste 0 1014.8 -0.1 78
2019-07-21 11:00:00 20.6 6 Nordeste 13 Este 0 1014.8 0.3 76
2019-07-21 10:00:00 18.9 9 Nordeste 14 Nordeste 0 1015 0.9 85
2019-07-21 09:00:00 17 4 Este 8 Este 0 1014.9 1.1 94
2019-07-21 08:00:00 16.7 3 Nordeste 7 Sudeste 0 1014.5 0.7 97
2019-07-21 07:00:00 16.6 5 Este 8 Este 0 1014.1 0.3 97
2019-07-21 06:00:00 17 3 Este 4 Este 0 1013.8 -0.2 98
2019-07-21 05:00:00 17.1 0 Calma 5 Nordeste 0 1013.8 -0.3 98
2019-07-21 04:00:00 17.5 0 Calma 6 Este 0 1013.8 -0.4 97
2019-07-21 03:00:00 17.5 2 Nordeste 9 Oeste 0 1014 -0.2 96
2019-07-21 02:00:00 17.7 8 Oeste 11 Oeste 0 1014.1 0 94
2019-07-21 01:00:00 18.1 4 Noroeste 9 Norte 0 1014.2 0.7 93
2019-07-21 00:00:00 18.3 3 Norte 9 Noroeste 0 1014.2 1 91
2019-07-20 23:00:00 18.5 4 Norte 11 Norte 0 1014.1 1.3 88
2019-07-20 22:00:00 18.8 5 Norte 14 Norte 0 1013.5 1.1 88
2019-07-20 21:00:00 19.2 7 Noroeste 19 Noroeste 0 1013.2 1 85
2019-07-20 20:00:00 19.7 11 Noroeste 20 Norte 0 1012.8 0.9 84
2019-07-20 19:00:00 21 9 Noroeste 21 Oeste 0 1012.4 0.6 78
2019-07-20 18:00:00 21.7 10 Noroeste 21 Noroeste 0 1012.2 0.6 75
2019-07-20 17:00:00 21.5 13 Noroeste 20 Noroeste 0 1011.9 0.6 71
2019-07-20 16:00:00 22.2 8 Noroeste 20 Oeste 0 1011.8 0.9 69
2019-07-20 15:00:00 21.9 10 Noroeste 24 Noroeste 0 1011.6 1.2 73
2019-07-20 14:00:00 23.4 13 Oeste 22 Oeste 0 1011.3 1.3 68
2019-07-20 13:00:00 22 13 Oeste 23 Oeste 0 1010.9 1.1 73
2019-07-20 12:00:00 21.8 13 Oeste 23 Oeste 0 1010.4 1.3 75
2019-07-20 11:00:00 21 13 Oeste 23 Noroeste 0 1010 1.5 80
2019-07-20 10:00:00 19.5 14 Oeste 25 Oeste 0 1009.8 1.7 90
2019-07-20 09:00:00 19.8 12 Oeste 21 Oeste 0 1009.1 1.2 88
2019-07-20 08:00:00 19.7 11 Sudoeste 20 Sudoeste 0 1008.5 0.6 86
2019-07-20 07:00:00 19.9 6 Sudoeste 15 Sudoeste 0 1008.1 -0.1 82
2019-07-20 06:00:00 19.8 6 Sudoeste 13 Sur 0 1007.9 -0.3 83
2019-07-20 05:00:00 19.7 8 Sur 17 Sudoeste 0 1007.9 -0.3 83
2019-07-20 04:00:00 19.3 6 Sudoeste 12 Sur 0 1008.2 -0.2 86
2019-07-20 03:00:00 18.8 9 Sudeste 15 Sur 0 1008.2 -0.5 87
2019-07-20 02:00:00 18.9 9 Sur 12 Sudeste 0 1008.2 -0.1 88
2019-07-20 01:00:00 18.3 8 Sudoeste 18 Sudoeste 0 1008.4 0.4 92
2019-07-20 00:00:00 17.2 6 Sudoeste 15 Oeste 0 1008.7 1 96
2019-07-19 23:00:00 17 6 Oeste 20 Oeste 0 1008.3 0.7 96
2019-07-19 22:00:00 17.7 10 Oeste 22 Oeste 0 1008 0.1 91
2019-07-19 21:00:00 20.3 12 Oeste 19 Oeste 0 1007.7 -0.5 73
2019-07-19 20:00:00 21.4 4 Nordeste 13 Noroeste 0 1007.6 -0.8 71
2019-07-19 19:00:00 20.5 9 Noroeste 21 Oeste 0 1007.9 -0.5 72
2019-07-19 18:00:00 21.2 14 Oeste 28 Oeste 0 1008.2 -0.5 72
2019-07-19 17:00:00 22.2 14 Oeste 24 Oeste 0 1008.4 -0.5 67
2019-07-19 16:00:00 21.5 15 Norte 22 Noroeste 0 1008.4 -0.5 69
2019-07-19 15:00:00 21.1 14 Norte 22 Noroeste 0 1008.7 -0.3 70
2019-07-19 14:00:00 20.5 11 Noroeste 21 Noroeste 0 1008.9 -0.3 72
2019-07-19 13:00:00 21.3 13 Norte 19 Noroeste 0 1008.9 -0.3 69
2019-07-19 12:00:00 20.6 8 Noroeste 15 Norte -- 1009 0 71
2019-07-19 11:00:00 19.2 6 Norte 15 Norte 0 1009.2 0.2 77
2019-07-19 10:00:00 18.7 5 Norte 11 Nordeste 0 1009.2 0.1 79
2019-07-19 09:00:00 18.4 7 Nordeste 10 Nordeste 0 1009 -0.3 84
2019-07-19 08:00:00 17.8 3 Nordeste 9 Nordeste 0 1009 -0.5 89
2019-07-19 07:00:00 17.7 3 Nordeste 8 Noroeste 0 1009.1 -1 88
2019-07-19 06:00:00 17.9 5 Norte 9 Norte 0 1009.3 -1.5 89
2019-07-19 05:00:00 17.9 3 Norte 9 Nordeste 0 1009.5 -1.6 91
2019-07-19 04:00:00 17.8 4 Norte 10 Norte 0 1010.1 -1.4 93
2019-07-19 03:00:00 17.9 5 Norte 11 Norte 0 1010.8 -0.8 95
2019-07-19 02:00:00 18 6 Norte 14 Norte 0 1011.1 -0.5 95
2019-07-19 01:00:00 18 6 Norte 13 Noroeste 0 1011.5 0.3 96
2019-07-19 00:00:00 17.9 6 Norte 11 Noroeste 0 1011.6 0.3 95